createdAt,value
2018-12-23T00:00:54.185Z,1024.06
2018-12-23T00:01:54.389Z,1024.1
2018-12-23T00:02:54.110Z,1024.12
2018-12-23T00:03:54.472Z,1024.13
2018-12-23T00:04:54.161Z,1024.15
2018-12-23T00:05:54.223Z,1024.22
2018-12-23T00:06:54.096Z,1024.2
2018-12-23T00:07:54.098Z,1024.18
2018-12-23T00:08:54.100Z,1024.18
2018-12-23T00:09:54.249Z,1024.24
2018-12-23T00:10:54.073Z,1024.26
2018-12-23T00:11:54.033Z,1024.26
2018-12-23T00:12:54.067Z,1024.29
2018-12-23T00:13:54.024Z,1024.26
2018-12-23T00:14:54.047Z,1024.28
2018-12-23T00:15:54.052Z,1024.24
2018-12-23T00:16:54.160Z,1024.3
2018-12-23T00:17:54.100Z,1024.27
2018-12-23T00:18:54.100Z,1024.27
2018-12-23T00:19:54.082Z,1024.26
2018-12-23T00:20:54.028Z,1024.32
2018-12-23T00:21:54.073Z,1024.37
2018-12-23T00:22:54.019Z,1024.36
2018-12-23T00:23:54.035Z,1024.36
2018-12-23T00:24:54.080Z,1024.33
2018-12-23T00:25:54.213Z,1024.38
2018-12-23T00:26:54.304Z,1024.42
2018-12-23T00:28:58.943Z,1024.3
2018-12-23T00:29:18.422Z,1024.31
2018-12-23T00:29:56.428Z,1024.23
2018-12-23T00:30:56.859Z,1024.26
2018-12-23T00:31:56.293Z,1024.26
2018-12-23T00:32:56.269Z,1024.22
2018-12-23T00:34:56.351Z,1024.21
2018-12-23T00:35:59.846Z,1024.18
2018-12-23T00:37:01.685Z,1024.2
2018-12-23T00:37:56.203Z,1024.23
2018-12-23T00:38:56.932Z,1024.19
2018-12-23T00:39:56.650Z,1024.16
2018-12-23T00:42:57.032Z,1024.24
2018-12-23T00:45:15.021Z,1024.33
2018-12-23T00:46:08.916Z,1024.43
2018-12-23T00:47:08.680Z,1024.4
2018-12-23T00:47:10.179Z,1024.3
2018-12-23T00:48:08.818Z,1024.45
2018-12-23T00:49:08.675Z,1024.43
2018-12-23T00:50:08.702Z,1024.41
2018-12-23T00:51:08.832Z,1024.42
2018-12-23T00:52:29.956Z,1024.38
2018-12-23T00:54:12.889Z,1024.38
2018-12-23T00:55:08.792Z,1024.36
2018-12-23T00:56:18.666Z,1024.34
2018-12-23T00:57:08.827Z,1024.36
2018-12-23T01:00:13.119Z,1024.39
2018-12-23T01:03:14.463Z,1024.5
2018-12-23T01:04:08.816Z,1024.47
2018-12-23T01:05:09.041Z,1024.49
2018-12-23T01:06:10.090Z,1024.48
2018-12-23T01:07:09.109Z,1024.51
2018-12-23T01:08:14.108Z,1024.46
2018-12-23T01:10:00.386Z,1024.43
2018-12-23T01:10:08.645Z,1024.43
2018-12-23T01:11:08.705Z,1024.41
2018-12-23T01:12:09.120Z,1024.38
2018-12-23T01:13:10.346Z,1024.45
2018-12-23T01:14:10.321Z,1024.4
2018-12-23T01:15:08.823Z,1024.44
2018-12-23T01:16:09.043Z,1024.34
2018-12-23T01:17:09.002Z,1024.34
2018-12-23T01:18:08.716Z,1024.36
2018-12-23T01:19:08.607Z,1024.33
2018-12-23T01:20:08.938Z,1024.38
2018-12-23T01:21:09.774Z,1024.4
2018-12-23T01:22:08.682Z,1024.5
2018-12-23T01:23:08.924Z,1024.48
2018-12-23T01:26:08.908Z,1024.59
2018-12-23T01:29:16.406Z,1024.57
2018-12-23T01:30:08.978Z,1024.53
2018-12-23T01:31:08.597Z,1024.64
2018-12-23T01:32:08.956Z,1024.66
2018-12-23T01:33:08.621Z,1024.56
2018-12-23T01:34:13.257Z,1024.54
2018-12-23T01:35:12.789Z,1024.54
2018-12-23T01:36:10.697Z,1024.57
2018-12-23T01:37:08.623Z,1024.53
2018-12-23T01:38:08.715Z,1024.55
2018-12-23T01:39:08.833Z,1024.64
2018-12-23T01:40:08.798Z,1024.63
2018-12-23T01:41:08.753Z,1024.64
2018-12-23T01:42:08.791Z,1024.6
2018-12-23T01:43:08.752Z,1024.58
2018-12-23T01:44:09.298Z,1024.58
2018-12-23T01:45:09.778Z,1024.54
2018-12-23T01:46:08.841Z,1024.56
2018-12-23T01:47:08.868Z,1024.55
2018-12-23T01:48:08.615Z,1024.53
2018-12-23T01:49:08.645Z,1024.53
2018-12-23T01:50:08.575Z,1024.49
2018-12-23T01:51:11.437Z,1024.55
2018-12-23T01:52:14.357Z,1024.55
2018-12-23T01:53:08.632Z,1024.47
2018-12-23T01:54:08.665Z,1024.5
2018-12-23T01:55:08.588Z,1024.5
2018-12-23T01:56:08.870Z,1024.46
2018-12-23T01:57:08.579Z,1024.46
2018-12-23T01:58:09.456Z,1024.41
2018-12-23T01:59:08.655Z,1024.38
2018-12-23T02:00:08.595Z,1024.4
2018-12-23T02:01:11.058Z,1024.41
2018-12-23T02:02:09.807Z,1024.35
2018-12-23T02:03:09.191Z,1024.35
2018-12-23T02:04:08.579Z,1024.37
2018-12-23T02:05:08.640Z,1024.38
2018-12-23T02:06:10.510Z,1024.34
2018-12-23T02:07:08.581Z,1024.39
2018-12-23T02:08:09.648Z,1024.45
2018-12-23T02:09:08.603Z,1024.44
2018-12-23T02:10:08.897Z,1024.47
2018-12-23T02:11:08.590Z,1024.47
2018-12-23T02:12:09.907Z,1024.47
2018-12-23T02:13:09.847Z,1024.42
2018-12-23T02:14:08.622Z,1024.54
2018-12-23T02:15:08.756Z,1024.53
2018-12-23T02:16:08.809Z,1024.53
2018-12-23T02:17:08.784Z,1024.49
2018-12-23T02:18:08.744Z,1024.52
2018-12-23T02:19:09.434Z,1024.53
2018-12-23T02:20:09.446Z,1024.49
2018-12-23T02:21:08.561Z,1024.49
2018-12-23T02:22:12.940Z,1024.5
2018-12-23T02:23:09.908Z,1024.5
2018-12-23T02:24:09.482Z,1024.57
2018-12-23T02:25:08.603Z,1024.55
2018-12-23T02:26:10.974Z,1024.55
2018-12-23T02:27:11.314Z,1024.53
2018-12-23T02:28:11.379Z,1024.57
2018-12-23T02:29:15.466Z,1024.61
2018-12-23T02:30:10.333Z,1024.59
2018-12-23T02:31:10.783Z,1024.62
2018-12-23T02:32:09.018Z,1024.68
2018-12-23T02:33:08.727Z,1024.71
2018-12-23T02:34:08.689Z,1024.68
2018-12-23T02:35:08.719Z,1024.7
2018-12-23T02:36:08.675Z,1024.71
2018-12-23T02:37:08.627Z,1024.7
2018-12-23T02:38:08.906Z,1024.66
2018-12-23T02:39:08.763Z,1024.68
2018-12-23T02:40:08.613Z,1024.67
2018-12-23T02:41:08.720Z,1024.72
2018-12-23T02:42:08.586Z,1024.75
2018-12-23T02:43:08.616Z,1024.73
2018-12-23T02:44:08.716Z,1024.72
2018-12-23T02:45:08.713Z,1024.73
2018-12-23T02:46:08.506Z,1024.66
2018-12-23T02:47:08.764Z,1024.72
2018-12-23T02:48:08.520Z,1024.74
2018-12-23T02:49:08.897Z,1024.68
2018-12-23T02:50:08.545Z,1024.76
2018-12-23T02:51:08.555Z,1024.71
2018-12-23T02:52:08.575Z,1024.73
2018-12-23T02:53:08.566Z,1024.72
2018-12-23T02:54:09.013Z,1024.66
2018-12-23T02:55:08.327Z,1024.7
2018-12-23T02:56:08.881Z,1024.71
2018-12-23T02:57:08.597Z,1024.7
2018-12-23T02:58:08.947Z,1024.72
2018-12-23T02:59:08.889Z,1024.67
2018-12-23T03:00:08.772Z,1024.68
2018-12-23T03:01:09.008Z,1024.67
2018-12-23T03:02:08.546Z,1024.62
2018-12-23T03:03:08.770Z,1024.65
2018-12-23T03:04:08.634Z,1024.56
2018-12-23T03:05:08.498Z,1024.59
2018-12-23T03:06:08.507Z,1024.56
2018-12-23T03:07:08.899Z,1024.6
2018-12-23T03:08:08.590Z,1024.54
2018-12-23T03:09:08.881Z,1024.57
2018-12-23T03:10:08.876Z,1024.58
2018-12-23T03:11:08.614Z,1024.6
2018-12-23T03:12:08.904Z,1024.63
2018-12-23T03:13:08.658Z,1024.65
2018-12-23T03:14:08.842Z,1024.55
2018-12-23T03:15:08.515Z,1024.58
2018-12-23T03:16:08.601Z,1024.59
2018-12-23T03:17:08.531Z,1024.61
2018-12-23T03:18:08.581Z,1024.63
2018-12-23T03:19:08.892Z,1024.6
2018-12-23T03:20:08.474Z,1024.6
2018-12-23T03:21:08.500Z,1024.67
2018-12-23T03:22:08.723Z,1024.67
2018-12-23T03:23:08.462Z,1024.7
2018-12-23T03:24:08.500Z,1024.64
2018-12-23T03:25:08.689Z,1024.65
2018-12-23T03:26:08.570Z,1024.61
2018-12-23T03:27:08.473Z,1024.65
2018-12-23T03:28:08.609Z,1024.66
2018-12-23T03:29:08.541Z,1024.67
2018-12-23T03:30:08.498Z,1024.58
2018-12-23T03:31:08.572Z,1024.59
2018-12-23T03:32:08.663Z,1024.63
2018-12-23T03:33:08.477Z,1024.7
2018-12-23T03:34:08.480Z,1024.7
2018-12-23T03:35:08.508Z,1024.68
2018-12-23T03:36:15.535Z,1024.68
2018-12-23T03:37:08.497Z,1024.62
2018-12-23T03:38:08.505Z,1024.58
2018-12-23T03:39:08.520Z,1024.57
2018-12-23T03:40:08.465Z,1024.59
2018-12-23T03:41:08.495Z,1024.61
2018-12-23T03:42:08.467Z,1024.61
2018-12-23T03:43:08.491Z,1024.68
2018-12-23T03:44:08.497Z,1024.67
2018-12-23T03:45:08.478Z,1024.64
2018-12-23T03:46:08.492Z,1024.66
2018-12-23T03:47:08.708Z,1024.67
2018-12-23T03:48:08.466Z,1024.68
2018-12-23T03:49:08.888Z,1024.75
2018-12-23T03:50:08.579Z,1024.72
2018-12-23T03:51:08.467Z,1024.72
2018-12-23T03:52:08.737Z,1024.69
2018-12-23T03:53:08.941Z,1024.76
2018-12-23T03:54:08.439Z,1024.75
2018-12-23T03:55:08.638Z,1024.72
2018-12-23T03:56:08.608Z,1024.78
2018-12-23T03:57:08.612Z,1024.72
2018-12-23T03:58:08.764Z,1024.75
2018-12-23T03:59:08.697Z,1024.73
2018-12-23T04:00:08.460Z,1024.74
2018-12-23T04:01:08.466Z,1024.77
2018-12-23T04:02:08.422Z,1024.78
2018-12-23T04:03:08.459Z,1024.79
2018-12-23T04:04:08.512Z,1024.74
2018-12-23T04:05:08.462Z,1024.77
2018-12-23T04:06:08.449Z,1024.74
2018-12-23T04:07:08.514Z,1024.77
2018-12-23T04:08:08.749Z,1024.81
2018-12-23T04:09:08.636Z,1024.79
2018-12-23T04:10:09.260Z,1024.81
2018-12-23T04:11:08.436Z,1024.78
2018-12-23T04:12:08.451Z,1024.81
2018-12-23T04:13:08.460Z,1024.79
2018-12-23T04:14:08.586Z,1024.8
2018-12-23T04:15:08.798Z,1024.8
2018-12-23T04:16:08.453Z,1024.77
2018-12-23T04:17:08.422Z,1024.81
2018-12-23T04:18:08.633Z,1024.79
2018-12-23T04:19:09.252Z,1024.8
2018-12-23T04:20:08.563Z,1024.77
2018-12-23T04:21:08.636Z,1024.81
2018-12-23T04:22:08.472Z,1024.81
2018-12-23T04:23:08.517Z,1024.82
2018-12-23T04:24:08.504Z,1024.8
2018-12-23T04:25:08.389Z,1024.77
2018-12-23T04:26:08.618Z,1024.76
2018-12-23T04:27:08.444Z,1024.76
2018-12-23T04:28:08.448Z,1024.76
2018-12-23T04:29:08.417Z,1024.76
2018-12-23T04:30:08.385Z,1024.77
2018-12-23T04:31:08.482Z,1024.79
2018-12-23T04:32:08.492Z,1024.78
2018-12-23T04:33:08.501Z,1024.81
2018-12-23T04:34:08.481Z,1024.81
2018-12-23T04:35:08.465Z,1024.84
2018-12-23T04:36:08.678Z,1024.8
2018-12-23T04:37:08.488Z,1024.78
2018-12-23T04:38:08.539Z,1024.79
2018-12-23T04:39:08.533Z,1024.76
2018-12-23T04:40:08.478Z,1024.77
2018-12-23T04:41:08.575Z,1024.77
2018-12-23T04:42:08.614Z,1024.8
2018-12-23T04:43:08.489Z,1024.73
2018-12-23T04:44:08.389Z,1024.75
2018-12-23T04:45:08.897Z,1024.72
2018-12-23T04:46:08.530Z,1024.71
2018-12-23T04:47:08.510Z,1024.78
2018-12-23T04:48:08.361Z,1024.74
2018-12-23T04:49:08.390Z,1024.79
2018-12-23T04:50:08.420Z,1024.72
2018-12-23T04:51:08.540Z,1024.74
2018-12-23T04:52:08.430Z,1024.78
2018-12-23T04:53:09.218Z,1024.74
2018-12-23T04:54:08.407Z,1024.7
2018-12-23T04:55:08.620Z,1024.68
2018-12-23T04:56:08.373Z,1024.65
2018-12-23T04:57:08.363Z,1024.66
2018-12-23T04:58:08.462Z,1024.63
2018-12-23T04:59:08.394Z,1024.69
2018-12-23T05:00:08.455Z,1024.66
2018-12-23T05:01:08.616Z,1024.69
2018-12-23T05:02:08.896Z,1024.7
2018-12-23T05:03:08.461Z,1024.69
2018-12-23T05:04:08.448Z,1024.68
2018-12-23T05:05:08.489Z,1024.66
2018-12-23T05:06:08.430Z,1024.65
2018-12-23T05:07:08.365Z,1024.68
2018-12-23T05:08:08.358Z,1024.74
2018-12-23T05:09:08.453Z,1024.73
2018-12-23T05:10:08.458Z,1024.71
2018-12-23T05:11:08.754Z,1024.73
2018-12-23T05:12:08.386Z,1024.73
2018-12-23T05:13:08.366Z,1024.73
2018-12-23T05:14:08.352Z,1024.72
2018-12-23T05:15:08.372Z,1024.68
2018-12-23T05:16:08.360Z,1024.7
2018-12-23T05:17:08.345Z,1024.69
2018-12-23T05:18:08.351Z,1024.74
2018-12-23T05:19:08.331Z,1024.75
2018-12-23T05:20:08.354Z,1024.74
2018-12-23T05:21:08.295Z,1024.8
2018-12-23T05:22:08.360Z,1024.78
2018-12-23T05:23:08.406Z,1024.79
2018-12-23T05:24:08.335Z,1024.8
2018-12-23T05:25:08.325Z,1024.75
2018-12-23T05:26:08.306Z,1024.72
2018-12-23T05:27:09.026Z,1024.74
2018-12-23T05:28:08.708Z,1024.73
2018-12-23T05:29:08.286Z,1024.68
2018-12-23T05:30:08.532Z,1024.65
2018-12-23T05:31:08.301Z,1024.62
2018-12-23T05:32:08.371Z,1024.62
2018-12-23T05:33:08.447Z,1024.61
2018-12-23T05:34:08.752Z,1024.66
2018-12-23T05:35:08.531Z,1024.64
2018-12-23T05:36:09.114Z,1024.65
2018-12-23T05:37:08.582Z,1024.61
2018-12-23T05:38:08.310Z,1024.62
2018-12-23T05:39:08.499Z,1024.59
2018-12-23T05:40:08.600Z,1024.63
2018-12-23T05:41:09.129Z,1024.7
2018-12-23T05:42:08.440Z,1024.71
2018-12-23T05:43:08.483Z,1024.71
2018-12-23T05:44:08.665Z,1024.76
2018-12-23T05:45:08.496Z,1024.78
2018-12-23T05:46:08.521Z,1024.81
2018-12-23T05:47:08.372Z,1024.81
2018-12-23T05:48:08.342Z,1024.82
2018-12-23T05:49:08.433Z,1024.79
2018-12-23T05:50:08.402Z,1024.76
2018-12-23T05:51:09.569Z,1024.71
2018-12-23T05:52:09.133Z,1024.69
2018-12-23T05:53:08.562Z,1024.68
2018-12-23T05:54:08.353Z,1024.64
2018-12-23T05:55:08.434Z,1024.67
2018-12-23T05:56:08.980Z,1024.63
2018-12-23T05:57:08.550Z,1024.59
2018-12-23T05:58:09.294Z,1024.59
2018-12-23T05:59:08.519Z,1024.6
2018-12-23T06:00:08.372Z,1024.61
2018-12-23T06:01:08.265Z,1024.61
2018-12-23T06:02:08.642Z,1024.65
2018-12-23T06:03:08.328Z,1024.65
2018-12-23T06:04:08.395Z,1024.67
2018-12-23T06:05:08.475Z,1024.65
2018-12-23T06:06:08.467Z,1024.66
2018-12-23T06:07:08.339Z,1024.66
2018-12-23T06:08:08.631Z,1024.68
2018-12-23T06:09:08.262Z,1024.69
2018-12-23T06:10:08.275Z,1024.72
2018-12-23T06:11:08.403Z,1024.71
2018-12-23T06:12:08.328Z,1024.7
2018-12-23T06:13:09.066Z,1024.75
2018-12-23T06:14:08.438Z,1024.72
2018-12-23T06:15:08.397Z,1024.67
2018-12-23T06:16:08.419Z,1024.7
2018-12-23T06:17:08.319Z,1024.71
2018-12-23T06:18:08.226Z,1024.77
2018-12-23T06:19:08.688Z,1024.74
2018-12-23T06:20:08.244Z,1024.78
2018-12-23T06:21:08.442Z,1024.78
2018-12-23T06:22:08.643Z,1024.8
2018-12-23T06:23:08.278Z,1024.81
2018-12-23T06:24:08.407Z,1024.82
2018-12-23T06:25:08.292Z,1024.8
2018-12-23T06:26:08.319Z,1024.85
2018-12-23T06:27:08.462Z,1024.84
2018-12-23T06:28:08.268Z,1024.86
2018-12-23T06:29:08.293Z,1024.87
2018-12-23T06:30:08.278Z,1024.91
2018-12-23T06:31:08.470Z,1024.88
2018-12-23T06:32:08.430Z,1024.81
2018-12-23T06:33:08.236Z,1024.89
2018-12-23T06:34:08.325Z,1024.86
2018-12-23T06:35:08.419Z,1024.9
2018-12-23T06:36:08.244Z,1024.86
2018-12-23T06:37:10.529Z,1024.92
2018-12-23T06:38:08.386Z,1024.93
2018-12-23T06:39:08.495Z,1024.97
2018-12-23T06:40:08.611Z,1024.94
2018-12-23T06:41:08.431Z,1024.98
2018-12-23T06:42:08.361Z,1024.98
2018-12-23T06:43:08.393Z,1025
2018-12-23T06:44:08.380Z,1025.03
2018-12-23T06:45:08.422Z,1025.06
2018-12-23T06:46:08.344Z,1025
2018-12-23T06:47:08.214Z,1025.04
2018-12-23T06:48:08.302Z,1025.05
2018-12-23T06:49:08.312Z,1025.09
2018-12-23T06:50:08.288Z,1025
2018-12-23T06:51:08.250Z,1025.03
2018-12-23T06:52:08.508Z,1025.09
2018-12-23T06:53:08.252Z,1025.05
2018-12-23T06:54:08.261Z,1025.13
2018-12-23T06:55:08.223Z,1025.14
2018-12-23T06:56:08.226Z,1025.15
2018-12-23T06:57:08.218Z,1025.15
2018-12-23T06:58:08.184Z,1025.11
2018-12-23T06:59:08.237Z,1025.15
2018-12-23T07:00:08.218Z,1025.24
2018-12-23T07:01:08.528Z,1025.25
2018-12-23T07:02:08.225Z,1025.2
2018-12-23T07:03:08.181Z,1025.22
2018-12-23T07:04:08.321Z,1025.2
2018-12-23T07:05:08.217Z,1025.26
2018-12-23T07:06:08.329Z,1025.19
2018-12-23T07:07:08.173Z,1025.19
2018-12-23T07:08:08.315Z,1025.2
2018-12-23T07:09:08.307Z,1025.22
2018-12-23T07:10:08.213Z,1025.14
2018-12-23T07:11:08.717Z,1025.14
2018-12-23T07:12:08.349Z,1025.12
2018-12-23T07:13:08.581Z,1025.08
2018-12-23T07:14:08.462Z,1025.12
2018-12-23T07:15:08.246Z,1025.16
2018-12-23T07:16:08.198Z,1025.13
2018-12-23T07:17:08.267Z,1025.13
2018-12-23T07:18:08.398Z,1025.22
2018-12-23T07:19:08.258Z,1025.13
2018-12-23T07:20:08.294Z,1025.12
2018-12-23T07:21:08.503Z,1025.12
2018-12-23T07:22:08.216Z,1025.12
2018-12-23T07:23:08.350Z,1025.1
2018-12-23T07:24:08.273Z,1025.11
2018-12-23T07:25:08.352Z,1025.11
2018-12-23T07:26:08.195Z,1025.13
2018-12-23T07:27:08.938Z,1025.11
2018-12-23T07:28:08.574Z,1025.05
2018-12-23T07:29:08.242Z,1025.07
2018-12-23T07:30:08.389Z,1025.09
2018-12-23T07:31:08.373Z,1025.12
2018-12-23T07:32:08.504Z,1025.08
2018-12-23T07:33:08.433Z,1025.13
2018-12-23T07:34:08.213Z,1025.06
2018-12-23T07:35:08.305Z,1025.09
2018-12-23T07:36:08.167Z,1025.1
2018-12-23T07:37:08.303Z,1025.08
2018-12-23T07:38:08.384Z,1025.04
2018-12-23T07:39:08.506Z,1024.98
2018-12-23T07:40:08.571Z,1024.96
2018-12-23T07:41:08.368Z,1025.07
2018-12-23T07:42:08.358Z,1025.03
2018-12-23T07:43:08.390Z,1025.02
2018-12-23T07:44:08.216Z,1025.06
2018-12-23T07:45:08.140Z,1025.03
2018-12-23T07:46:08.295Z,1025.03
2018-12-23T07:47:08.208Z,1025.04
2018-12-23T07:48:08.261Z,1025
2018-12-23T07:49:08.657Z,1025.01
2018-12-23T07:50:08.334Z,1025.02
2018-12-23T07:51:08.145Z,1025.04
2018-12-23T07:52:08.138Z,1025.06
2018-12-23T07:53:08.303Z,1024.99
2018-12-23T07:54:08.140Z,1025.01
2018-12-23T07:55:08.216Z,1025.02
2018-12-23T07:56:08.263Z,1024.99
2018-12-23T07:57:08.324Z,1024.99
2018-12-23T07:58:08.181Z,1025.04
2018-12-23T07:59:08.182Z,1025.06
2018-12-23T08:00:08.214Z,1025.08
2018-12-23T08:01:08.150Z,1025.05
2018-12-23T08:02:08.103Z,1025.09
2018-12-23T08:03:08.284Z,1025.04
2018-12-23T08:04:08.147Z,1025.09
2018-12-23T08:05:08.287Z,1025.09
2018-12-23T08:06:08.374Z,1025.07
2018-12-23T08:07:08.203Z,1025.09
2018-12-23T08:08:08.100Z,1025.1
2018-12-23T08:09:08.288Z,1025.11
2018-12-23T08:10:08.349Z,1025.13
2018-12-23T08:11:08.718Z,1025.13
2018-12-23T08:12:08.346Z,1025.1
2018-12-23T08:13:08.380Z,1025.21
2018-12-23T08:14:08.413Z,1025.2
2018-12-23T08:15:08.234Z,1025.2
2018-12-23T08:16:08.923Z,1025.25
2018-12-23T08:17:08.190Z,1025.21
2018-12-23T08:18:08.253Z,1025.17
2018-12-23T08:19:08.934Z,1025.14
2018-12-23T08:20:08.195Z,1025.17
2018-12-23T08:21:08.411Z,1025.12
2018-12-23T08:22:08.727Z,1025.12
2018-12-23T08:23:08.180Z,1025.11
2018-12-23T08:24:10.114Z,1025.03
2018-12-23T08:25:08.181Z,1025.09
2018-12-23T08:26:08.136Z,1025.1
2018-12-23T08:27:08.104Z,1025.07
2018-12-23T08:28:08.217Z,1025.09
2018-12-23T08:29:08.171Z,1025.08
2018-12-23T08:30:08.111Z,1025.03
2018-12-23T08:31:08.113Z,1025.05
2018-12-23T08:32:08.194Z,1025.07
2018-12-23T08:33:08.102Z,1025.02
2018-12-23T08:34:08.095Z,1025.07
2018-12-23T08:35:08.139Z,1025.02
2018-12-23T08:36:08.112Z,1025.07
2018-12-23T08:37:11.967Z,1025.09
2018-12-23T08:38:08.118Z,1025.07
2018-12-23T08:39:08.235Z,1025.08
2018-12-23T08:40:08.149Z,1025.13
2018-12-23T08:41:08.088Z,1025.12
2018-12-23T08:42:08.102Z,1025.12
2018-12-23T08:43:08.073Z,1025.1
2018-12-23T08:44:08.061Z,1025.08
2018-12-23T08:45:08.102Z,1025.08
2018-12-23T08:46:08.111Z,1025.09
2018-12-23T08:47:08.244Z,1025.08
2018-12-23T08:48:08.414Z,1025.1
2018-12-23T08:49:08.436Z,1025.12
2018-12-23T08:50:08.324Z,1025.14
2018-12-23T08:51:08.154Z,1025.05
2018-12-23T08:52:08.238Z,1025.1
2018-12-23T08:53:09.118Z,1025.09
2018-12-23T08:54:08.080Z,1025.07
2018-12-23T08:55:08.656Z,1025.1
2018-12-23T08:56:08.251Z,1025.05
2018-12-23T08:57:08.243Z,1025.06
2018-12-23T08:58:08.349Z,1025.08
2018-12-23T08:59:08.255Z,1025.04
2018-12-23T09:00:08.141Z,1025.03
2018-12-23T09:01:08.163Z,1025.02
2018-12-23T09:02:08.066Z,1024.94
2018-12-23T09:03:08.115Z,1025
2018-12-23T09:04:08.336Z,1024.94
2018-12-23T09:05:08.049Z,1025
2018-12-23T09:06:08.056Z,1024.96
2018-12-23T09:07:08.212Z,1024.97
2018-12-23T09:08:08.084Z,1025.01
2018-12-23T09:09:08.128Z,1025.02
2018-12-23T09:10:08.162Z,1024.98
2018-12-23T09:11:08.016Z,1024.95
2018-12-23T09:12:08.187Z,1024.96
2018-12-23T09:13:08.307Z,1024.99
2018-12-23T09:14:08.257Z,1024.96
2018-12-23T09:15:08.865Z,1024.97
2018-12-23T09:16:08.224Z,1025
2018-12-23T09:17:08.056Z,1024.98
2018-12-23T09:18:08.650Z,1024.95
2018-12-23T09:19:08.137Z,1024.91
2018-12-23T09:20:08.852Z,1024.9
2018-12-23T09:21:08.314Z,1024.86
2018-12-23T09:22:08.377Z,1024.9
2018-12-23T09:23:08.213Z,1024.9
2018-12-23T09:24:08.170Z,1024.88
2018-12-23T09:25:08.418Z,1024.87
2018-12-23T09:26:08.099Z,1024.81
2018-12-23T09:27:08.060Z,1024.8
2018-12-23T09:28:09.092Z,1024.77
2018-12-23T09:29:08.423Z,1024.79
2018-12-23T09:30:08.222Z,1024.71
2018-12-23T09:31:08.030Z,1024.75
2018-12-23T09:32:09.123Z,1024.77
2018-12-23T09:33:08.111Z,1024.77
2018-12-23T09:34:08.212Z,1024.74
2018-12-23T09:35:08.847Z,1024.74
2018-12-23T09:36:08.158Z,1024.72
2018-12-23T09:37:08.285Z,1024.71
2018-12-23T09:38:08.621Z,1024.7
2018-12-23T09:39:08.090Z,1024.69
2018-12-23T09:40:08.128Z,1024.7
2018-12-23T09:41:08.000Z,1024.67
2018-12-23T09:42:08.150Z,1024.62
2018-12-23T09:43:08.282Z,1024.62
2018-12-23T09:44:08.002Z,1024.6
2018-12-23T09:45:08.338Z,1024.63
2018-12-23T09:46:08.204Z,1024.64
2018-12-23T09:47:08.073Z,1024.67
2018-12-23T09:48:08.093Z,1024.66
2018-12-23T09:49:08.154Z,1024.59
2018-12-23T09:50:08.339Z,1024.57
2018-12-23T09:51:08.310Z,1024.53
2018-12-23T09:52:08.387Z,1024.53
2018-12-23T09:53:08.001Z,1024.58
2018-12-23T09:54:08.159Z,1024.61
2018-12-23T09:55:08.286Z,1024.55
2018-12-23T09:56:08.197Z,1024.55
2018-12-23T09:57:08.439Z,1024.49
2018-12-23T09:58:07.978Z,1024.44
2018-12-23T09:59:08.245Z,1024.48
2018-12-23T10:00:08.369Z,1024.42
2018-12-23T10:01:08.159Z,1024.41
2018-12-23T10:02:08.046Z,1024.43
2018-12-23T10:03:08.035Z,1024.42
2018-12-23T10:04:08.173Z,1024.4
2018-12-23T10:05:08.267Z,1024.36
2018-12-23T10:06:08.069Z,1024.29
2018-12-23T10:07:08.027Z,1024.33
2018-12-23T10:08:10.560Z,1024.28
2018-12-23T10:09:08.030Z,1024.27
2018-12-23T10:10:08.101Z,1024.21
2018-12-23T10:11:08.023Z,1024.21
2018-12-23T10:12:07.964Z,1024.23
2018-12-23T10:13:08.240Z,1024.25
2018-12-23T10:14:08.020Z,1024.19
2018-12-23T10:15:08.268Z,1024.19
2018-12-23T10:16:07.996Z,1024.14
2018-12-23T10:17:07.997Z,1024.13
2018-12-23T10:18:07.994Z,1024.12
2018-12-23T10:19:08.044Z,1024.16
2018-12-23T10:20:07.952Z,1024.15
2018-12-23T10:21:10.002Z,1024.15
2018-12-23T10:22:07.972Z,1024.12
2018-12-23T10:23:08.078Z,1024.07
2018-12-23T10:24:08.008Z,1024.11
2018-12-23T10:25:07.961Z,1024.1
2018-12-23T10:26:07.988Z,1024.06
2018-12-23T10:27:07.983Z,1024.09
2018-12-23T10:28:08.009Z,1024.06
2018-12-23T10:29:08.174Z,1024.05
2018-12-23T10:30:07.993Z,1024.01
2018-12-23T10:31:08.025Z,1024.03
2018-12-23T10:32:08.111Z,1024.04
2018-12-23T10:33:08.107Z,1023.98
2018-12-23T10:34:08.016Z,1023.96
2018-12-23T10:35:08.186Z,1023.97
2018-12-23T10:36:07.920Z,1024
2018-12-23T10:37:08.017Z,1023.94
2018-12-23T10:38:07.942Z,1023.92
2018-12-23T10:39:08.280Z,1023.9
2018-12-23T10:40:08.822Z,1023.94
2018-12-23T10:41:08.032Z,1023.9
2018-12-23T10:42:08.024Z,1023.95
2018-12-23T10:43:08.307Z,1023.87
2018-12-23T10:44:08.365Z,1023.89
2018-12-23T10:45:08.254Z,1023.9
2018-12-23T10:46:08.286Z,1023.84
2018-12-23T10:47:08.058Z,1023.79
2018-12-23T10:48:08.012Z,1023.72
2018-12-23T10:49:08.019Z,1023.78
2018-12-23T10:50:08.377Z,1023.76
2018-12-23T10:51:08.058Z,1023.72
2018-12-23T10:52:07.957Z,1023.69
2018-12-23T10:53:08.447Z,1023.65
2018-12-23T10:54:08.093Z,1023.64
2018-12-23T10:55:08.181Z,1023.57
2018-12-23T10:56:08.808Z,1023.6
2018-12-23T10:57:08.004Z,1023.51
2018-12-23T10:58:07.934Z,1023.54
2018-12-23T10:59:08.114Z,1023.52
2018-12-23T11:00:07.943Z,1023.49
2018-12-23T11:01:07.978Z,1023.5
2018-12-23T11:02:14.055Z,1023.45
2018-12-23T11:03:07.913Z,1023.41
2018-12-23T11:04:07.970Z,1023.42
2018-12-23T11:05:08.126Z,1023.42
2018-12-23T11:06:08.000Z,1023.37
2018-12-23T11:07:08.447Z,1023.34
2018-12-23T11:08:08.066Z,1023.35
2018-12-23T11:09:08.080Z,1023.29
2018-12-23T11:10:07.965Z,1023.29
2018-12-23T11:11:09.042Z,1023.25
2018-12-23T11:12:08.006Z,1023.2
2018-12-23T11:13:07.954Z,1023.15
2018-12-23T11:14:07.960Z,1023.18
2018-12-23T11:15:08.090Z,1023.12
2018-12-23T11:16:08.000Z,1023.14
2018-12-23T11:17:07.959Z,1023.07
2018-12-23T11:18:07.974Z,1023.02
2018-12-23T11:19:08.170Z,1023.04
2018-12-23T11:20:08.101Z,1023
2018-12-23T11:21:08.038Z,1022.98
2018-12-23T11:22:08.451Z,1022.98
2018-12-23T11:23:08.262Z,1022.9
2018-12-23T11:24:08.123Z,1022.95
2018-12-23T11:25:07.851Z,1022.86
2018-12-23T11:26:08.165Z,1022.86
2018-12-23T11:27:08.071Z,1022.74
2018-12-23T11:28:08.218Z,1022.82
2018-12-23T11:29:08.171Z,1022.75
2018-12-23T11:30:08.299Z,1022.69
2018-12-23T11:31:08.021Z,1022.74
2018-12-23T11:32:08.123Z,1022.71
2018-12-23T11:33:08.004Z,1022.66
2018-12-23T11:34:08.107Z,1022.66
2018-12-23T11:35:07.917Z,1022.65
2018-12-23T11:36:07.985Z,1022.61
2018-12-23T11:37:08.237Z,1022.59
2018-12-23T11:38:08.070Z,1022.59
2018-12-23T11:39:07.951Z,1022.59
2018-12-23T11:40:08.694Z,1022.55
2018-12-23T11:41:07.867Z,1022.51
2018-12-23T11:42:07.942Z,1022.5
2018-12-23T11:43:08.247Z,1022.47
2018-12-23T11:44:08.859Z,1022.45
2018-12-23T11:45:07.973Z,1022.39
2018-12-23T11:46:08.156Z,1022.44
2018-12-23T11:47:08.721Z,1022.42
2018-12-23T11:48:08.287Z,1022.42
2018-12-23T11:49:08.061Z,1022.44
2018-12-23T11:50:07.946Z,1022.42
2018-12-23T11:51:07.974Z,1022.41
2018-12-23T11:52:07.929Z,1022.43
2018-12-23T11:53:07.850Z,1022.39
2018-12-23T11:54:08.017Z,1022.36
2018-12-23T11:55:07.930Z,1022.33
2018-12-23T11:56:08.040Z,1022.38
2018-12-23T11:57:07.990Z,1022.33
2018-12-23T11:58:07.973Z,1022.35
2018-12-23T11:59:07.961Z,1022.27
2018-12-23T12:00:07.989Z,1022.27
2018-12-23T12:01:07.929Z,1022.34
2018-12-23T12:02:15.600Z,1022.35
2018-12-23T12:03:07.981Z,1022.26
2018-12-23T12:04:07.944Z,1022.28
2018-12-23T12:05:07.823Z,1022.25
2018-12-23T12:06:08.274Z,1022.29
2018-12-23T12:07:07.838Z,1022.23
2018-12-23T12:08:07.930Z,1022.2
2018-12-23T12:09:07.818Z,1022.24
2018-12-23T12:10:08.058Z,1022.18
2018-12-23T12:11:07.901Z,1022.21
2018-12-23T12:12:07.800Z,1022.16
2018-12-23T12:13:07.936Z,1022.19
2018-12-23T12:14:08.180Z,1022.2
2018-12-23T12:15:07.842Z,1022.23
2018-12-23T12:16:08.214Z,1022.21
2018-12-23T12:17:08.190Z,1022.2
2018-12-23T12:18:08.081Z,1022.19
2018-12-23T12:19:07.795Z,1022.11
2018-12-23T12:20:08.000Z,1022.12
2018-12-23T12:21:07.763Z,1022.1
2018-12-23T12:22:07.795Z,1022.12